Terminal Aerodrome Forecast
Issued by NWS Boston, MA

Current Version | Previous Version | Text Only | Print | Product List | Glossary On
Versions: 1 2 3 4 5 6 7 8 9 10 11 12 13 14 15 16 17 18 19 20 21 22
000 FTUS41 KBOX 012323 TAFBOS TAF KBOS 012323Z 0200/0306 12010KT 6SM -SHRA OVC050 FM020400 12004KT 5SM -DZ BR OVC035 FM020700 08004KT 3SM -DZ BR OVC012 FM021300 04006KT 5SM BR VCSH OVC010 FM022200 02006KT P6SM OVC010 FM030500 33004KT P6SM VCSH BKN010=

USA.gov is the U.S. government's official web portal to all federal, state and local government web resources and services.